Aktuální počasí v Tlučné 

Teplota 23.7 °C
Minimální teplota 11.4 °C Maximální teplota 25.1 °C
Teplota rosného bodu 13.9 °C Pocitová teplota 21.8 °C
Tlak 1009.3 hPa
Směr a rychlost větru SW 4.1 m/s
» 6.0 m/s
vlhkost 54.2 %
Teplota 0.0  mm/h
SlunceUV7.37 dnes zítra
↑ 05:00 ↑ 05:00
↓ 21:19 ↓ 21:19
   
Měsíc dnes zítra
↑ 06:39 ↑ 07:50
↓ 22:22 ↓ 23:07
   
  LKLN Metar
  LKLN Metar
2017/06/25 10:00
LKLN 251000Z AUTO 23010KT 200V260 9999 FEW054 BKN066 OVC130 22/11 Q1014
Rychlost a směr větru 200° < 230° > 260°
18.5 km/h
--
10 km
32805.1 ft
Zataženo (3962 m) Skoro zataženo (2012 m) Skoro jasno (1646 m)
Teplota 22 °C
Rosný bod 11°C
 
Tlak 1014 hPa
760.6 mmHg
 
  YR.no meteogram
  YR.no meteogram
Meteogram YR.no
  IN-Pocasi.cz
  IN-Pocasi.cz
In-Pocasi logo




  PocasiIdnes     CHMI     MeteoPress     Radar     Radar2  


  Valid XHTML 1.0 Transitional  


Provozni a servisni denik

Popis

ČKD / FAQ